sensor_id;sensor_type;location;lat;lon;timestamp;P1;durP1;ratioP1;P2;durP2;ratioP2
13706;SDS011;6925;47.816;13.072;2022-09-09T00:10:53;1.25;;;0.60;;
13706;SDS011;6925;47.816;13.072;2022-09-09T00:13:28;0.70;;;0.43;;
13706;SDS011;6925;47.816;13.072;2022-09-09T01:17:15;2.13;;;0.70;;
13706;SDS011;6925;47.816;13.072;2022-09-09T01:22:26;2.00;;;0.70;;
13706;SDS011;6925;47.816;13.072;2022-09-09T01:28:14;2.25;;;0.63;;
13706;SDS011;6925;47.816;13.072;2022-09-09T01:30:45;0.57;;;0.40;;
13706;SDS011;6925;47.816;13.072;2022-09-09T01:33:13;1.42;;;0.50;;
13706;SDS011;6925;47.816;13.072;2022-09-09T01:35:43;0.52;;;0.38;;
13706;SDS011;6925;47.816;13.072;2022-09-09T01:40:50;3.30;;;0.82;;
13706;SDS011;6925;47.816;13.072;2022-09-09T01:43:20;2.55;;;0.70;;
13706;SDS011;6925;47.816;13.072;2022-09-09T01:45:49;3.53;;;0.70;;
13706;SDS011;6925;47.816;13.072;2022-09-09T01:48:19;1.42;;;0.65;;
13706;SDS011;6925;47.816;13.072;2022-09-09T01:50:49;1.75;;;0.65;;
13706;SDS011;6925;47.816;13.072;2022-09-09T01:53:17;2.17;;;0.55;;
13706;SDS011;6925;47.816;13.072;2022-09-09T01:55:46;5.28;;;0.88;;
13706;SDS011;6925;47.816;13.072;2022-09-09T01:59:01;1.23;;;0.60;;
13706;SDS011;6925;47.816;13.072;2022-09-09T02:05:01;2.22;;;0.77;;
13706;SDS011;6925;47.816;13.072;2022-09-09T02:22:16;1.45;;;0.65;;
13706;SDS011;6925;47.816;13.072;2022-09-09T02:24:57;2.15;;;0.60;;
13706;SDS011;6925;47.816;13.072;2022-09-09T02:34:46;1.63;;;0.70;;
13706;SDS011;6925;47.816;13.072;2022-09-09T03:55:50;1.63;;;0.50;;
13706;SDS011;6925;47.816;13.072;2022-09-09T07:30:56;5.15;;;1.38;;
13706;SDS011;6925;47.816;13.072;2022-09-09T07:33:28;2.42;;;1.00;;
13706;SDS011;6925;47.816;13.072;2022-09-09T07:36:04;2.58;;;0.70;;
13706;SDS011;6925;47.816;13.072;2022-09-09T07:38:40;1.92;;;1.05;;
13706;SDS011;6925;47.816;13.072;2022-09-09T07:41:21;3.38;;;0.93;;
13706;SDS011;6925;47.816;13.072;2022-09-09T07:50:26;1.80;;;0.80;;
13706;SDS011;6925;47.816;13.072;2022-09-09T07:52:54;2.30;;;0.80;;
13706;SDS011;6925;47.816;13.072;2022-09-09T07:55:24;1.15;;;0.70;;
13706;SDS011;6925;47.816;13.072;2022-09-09T07:57:53;2.17;;;0.80;;
13706;SDS011;6925;47.816;13.072;2022-09-09T08:00:22;2.78;;;1.00;;
13706;SDS011;6925;47.816;13.072;2022-09-09T08:02:49;2.45;;;0.88;;
13706;SDS011;6925;47.816;13.072;2022-09-09T08:05:21;2.10;;;1.00;;
13706;SDS011;6925;47.816;13.072;2022-09-09T08:08:07;2.88;;;0.90;;
13706;SDS011;6925;47.816;13.072;2022-09-09T08:10:35;2.00;;;0.75;;
13706;SDS011;6925;47.816;13.072;2022-09-09T08:13:04;3.13;;;0.80;;
13706;SDS011;6925;47.816;13.072;2022-09-09T08:15:31;1.73;;;0.70;;
13706;SDS011;6925;47.816;13.072;2022-09-09T08:17:59;2.80;;;0.93;;
13706;SDS011;6925;47.816;13.072;2022-09-09T08:20:28;2.63;;;1.10;;
13706;SDS011;6925;47.816;13.072;2022-09-09T08:23:00;3.55;;;1.30;;
13706;SDS011;6925;47.816;13.072;2022-09-09T08:25:29;1.92;;;0.80;;
13706;SDS011;6925;47.816;13.072;2022-09-09T08:28:10;1.50;;;0.80;;
13706;SDS011;6925;47.816;13.072;2022-09-09T08:30:38;1.90;;;0.70;;
13706;SDS011;6925;47.816;13.072;2022-09-09T08:33:09;2.83;;;0.90;;
13706;SDS011;6925;47.816;13.072;2022-09-09T08:39:05;2.90;;;1.08;;
13706;SDS011;6925;47.816;13.072;2022-09-09T08:44:46;2.78;;;1.25;;
13706;SDS011;6925;47.816;13.072;2022-09-09T08:47:27;1.80;;;0.85;;
13706;SDS011;6925;47.816;13.072;2022-09-09T08:50:22;2.58;;;1.15;;
13706;SDS011;6925;47.816;13.072;2022-09-09T08:55:59;1.63;;;0.70;;
13706;SDS011;6925;47.816;13.072;2022-09-09T08:58:41;2.15;;;0.93;;
13706;SDS011;6925;47.816;13.072;2022-09-09T09:01:21;2.75;;;1.48;;
13706;SDS011;6925;47.816;13.072;2022-09-09T09:47:39;2.28;;;1.10;;
13706;SDS011;6925;47.816;13.072;2022-09-09T09:57:13;3.83;;;1.05;;
13706;SDS011;6925;47.816;13.072;2022-09-09T10:03:23;2.28;;;1.00;;
13706;SDS011;6925;47.816;13.072;2022-09-09T10:05:53;5.93;;;1.63;;
13706;SDS011;6925;47.816;13.072;2022-09-09T10:08:21;2.47;;;1.30;;
13706;SDS011;6925;47.816;13.072;2022-09-09T10:10:52;2.53;;;1.00;;
13706;SDS011;6925;47.816;13.072;2022-09-09T10:13:44;2.20;;;1.00;;
13706;SDS011;6925;47.816;13.072;2022-09-09T10:16:29;3.72;;;1.10;;
13706;SDS011;6925;47.816;13.072;2022-09-09T10:19:12;2.45;;;1.00;;
13706;SDS011;6925;47.816;13.072;2022-09-09T10:21:54;3.13;;;0.80;;
13706;SDS011;6925;47.816;13.072;2022-09-09T10:27:22;2.95;;;1.30;;
13706;SDS011;6925;47.816;13.072;2022-09-09T10:30:05;3.10;;;1.10;;
13706;SDS011;6925;47.816;13.072;2022-09-09T10:32:46;5.15;;;1.70;;
13706;SDS011;6925;47.816;13.072;2022-09-09T10:45:32;2.55;;;1.30;;
13706;SDS011;6925;47.816;13.072;2022-09-09T10:48:20;3.03;;;1.40;;
13706;SDS011;6925;47.816;13.072;2022-09-09T10:54:30;2.20;;;1.10;;
13706;SDS011;6925;47.816;13.072;2022-09-09T10:57:08;3.90;;;1.40;;
13706;SDS011;6925;47.816;13.072;2022-09-09T10:59:47;2.67;;;1.60;;
13706;SDS011;6925;47.816;13.072;2022-09-09T11:02:24;3.55;;;1.38;;
13706;SDS011;6925;47.816;13.072;2022-09-09T11:05:06;2.72;;;1.30;;
13706;SDS011;6925;47.816;13.072;2022-09-09T11:07:59;3.53;;;1.50;;
13706;SDS011;6925;47.816;13.072;2022-09-09T11:10:38;2.97;;;1.20;;
13706;SDS011;6925;47.816;13.072;2022-09-09T11:13:11;1.73;;;0.90;;
13706;SDS011;6925;47.816;13.072;2022-09-09T11:15:45;2.40;;;1.10;;
13706;SDS011;6925;47.816;13.072;2022-09-09T11:20:51;2.17;;;1.00;;
13706;SDS011;6925;47.816;13.072;2022-09-09T11:23:26;3.55;;;1.33;;
13706;SDS011;6925;47.816;13.072;2022-09-09T11:26:01;1.95;;;0.77;;
13706;SDS011;6925;47.816;13.072;2022-09-09T11:28:42;3.42;;;1.00;;
13706;SDS011;6925;47.816;13.072;2022-09-09T11:31:33;1.77;;;0.95;;
13706;SDS011;6925;47.816;13.072;2022-09-09T11:34:39;2.75;;;0.90;;
13706;SDS011;6925;47.816;13.072;2022-09-09T11:43:32;3.10;;;1.08;;
13706;SDS011;6925;47.816;13.072;2022-09-09T11:52:10;4.40;;;1.70;;
13706;SDS011;6925;47.816;13.072;2022-09-09T11:54:46;5.47;;;1.90;;
13706;SDS011;6925;47.816;13.072;2022-09-09T11:57:30;3.53;;;1.50;;
13706;SDS011;6925;47.816;13.072;2022-09-09T12:05:19;2.90;;;1.20;;
13706;SDS011;6925;47.816;13.072;2022-09-09T12:11:00;4.35;;;1.30;;
13706;SDS011;6925;47.816;13.072;2022-09-09T12:13:41;2.15;;;1.17;;
13706;SDS011;6925;47.816;13.072;2022-09-09T12:16:30;2.70;;;1.30;;
13706;SDS011;6925;47.816;13.072;2022-09-09T12:22:41;4.13;;;1.20;;
13706;SDS011;6925;47.816;13.072;2022-09-09T12:25:50;3.65;;;1.13;;
13706;SDS011;6925;47.816;13.072;2022-09-09T12:28:46;3.28;;;1.27;;
13706;SDS011;6925;47.816;13.072;2022-09-09T12:31:24;2.10;;;1.13;;
13706;SDS011;6925;47.816;13.072;2022-09-09T12:34:02;2.30;;;1.08;;
13706;SDS011;6925;47.816;13.072;2022-09-09T12:36:36;2.63;;;1.00;;
13706;SDS011;6925;47.816;13.072;2022-09-09T12:39:14;2.03;;;0.90;;
13706;SDS011;6925;47.816;13.072;2022-09-09T12:41:51;2.85;;;1.30;;
13706;SDS011;6925;47.816;13.072;2022-09-09T12:44:22;3.05;;;1.35;;
13706;SDS011;6925;47.816;13.072;2022-09-09T12:46:53;2.42;;;1.10;;
13706;SDS011;6925;47.816;13.072;2022-09-09T12:49:32;1.83;;;1.15;;
13706;SDS011;6925;47.816;13.072;2022-09-09T12:52:25;3.10;;;1.17;;
13706;SDS011;6925;47.816;13.072;2022-09-09T12:57:29;3.20;;;1.42;;
13706;SDS011;6925;47.816;13.072;2022-09-09T13:00:11;2.65;;;1.20;;
13706;SDS011;6925;47.816;13.072;2022-09-09T13:02:48;4.60;;;1.30;;
13706;SDS011;6925;47.816;13.072;2022-09-09T13:05:22;2.72;;;1.10;;
13706;SDS011;6925;47.816;13.072;2022-09-09T13:07:50;4.05;;;1.15;;
13706;SDS011;6925;47.816;13.072;2022-09-09T13:10:24;2.40;;;1.20;;
13706;SDS011;6925;47.816;13.072;2022-09-09T13:12:55;4.13;;;1.45;;
13706;SDS011;6925;47.816;13.072;2022-09-09T13:15:24;5.05;;;1.25;;
13706;SDS011;6925;47.816;13.072;2022-09-09T13:17:55;2.60;;;1.00;;
13706;SDS011;6925;47.816;13.072;2022-09-09T13:20:26;3.00;;;1.25;;
13706;SDS011;6925;47.816;13.072;2022-09-09T13:28:51;4.13;;;1.65;;
13706;SDS011;6925;47.816;13.072;2022-09-09T13:31:40;6.15;;;1.27;;
13706;SDS011;6925;47.816;13.072;2022-09-09T13:34:11;2.58;;;1.10;;
13706;SDS011;6925;47.816;13.072;2022-09-09T13:36:41;6.05;;;1.20;;
13706;SDS011;6925;47.816;13.072;2022-09-09T13:39:15;6.65;;;1.33;;
13706;SDS011;6925;47.816;13.072;2022-09-09T13:41:46;1.85;;;0.98;;
13706;SDS011;6925;47.816;13.072;2022-09-09T13:44:17;2.70;;;1.13;;
13706;SDS011;6925;47.816;13.072;2022-09-09T13:49:26;3.58;;;1.20;;
13706;SDS011;6925;47.816;13.072;2022-09-09T13:52:03;2.50;;;1.00;;
13706;SDS011;6925;47.816;13.072;2022-09-09T13:54:35;3.65;;;1.55;;
13706;SDS011;6925;47.816;13.072;2022-09-09T13:57:12;3.03;;;1.20;;
13706;SDS011;6925;47.816;13.072;2022-09-09T13:59:43;4.07;;;1.70;;
13706;SDS011;6925;47.816;13.072;2022-09-09T14:02:13;6.90;;;1.50;;
13706;SDS011;6925;47.816;13.072;2022-09-09T14:04:42;3.08;;;1.30;;
13706;SDS011;6925;47.816;13.072;2022-09-09T14:07:11;2.88;;;1.13;;
13706;SDS011;6925;47.816;13.072;2022-09-09T14:09:42;3.63;;;1.55;;
13706;SDS011;6925;47.816;13.072;2022-09-09T14:12:12;3.40;;;1.27;;
13706;SDS011;6925;47.816;13.072;2022-09-09T14:14:40;4.75;;;1.52;;
13706;SDS011;6925;47.816;13.072;2022-09-09T14:17:08;3.38;;;1.38;;
13706;SDS011;6925;47.816;13.072;2022-09-09T14:19:35;4.85;;;1.70;;
13706;SDS011;6925;47.816;13.072;2022-09-09T14:22:03;3.95;;;1.65;;
13706;SDS011;6925;47.816;13.072;2022-09-09T14:24:30;5.32;;;1.75;;
13706;SDS011;6925;47.816;13.072;2022-09-09T14:27:02;3.78;;;1.70;;
13706;SDS011;6925;47.816;13.072;2022-09-09T14:29:31;4.35;;;1.50;;
13706;SDS011;6925;47.816;13.072;2022-09-09T14:32:01;3.55;;;1.52;;
13706;SDS011;6925;47.816;13.072;2022-09-09T14:34:29;3.17;;;1.25;;
13706;SDS011;6925;47.816;13.072;2022-09-09T14:37:00;3.83;;;2.00;;
13706;SDS011;6925;47.816;13.072;2022-09-09T14:39:28;4.45;;;2.00;;
13706;SDS011;6925;47.816;13.072;2022-09-09T14:41:55;3.28;;;1.70;;
13706;SDS011;6925;47.816;13.072;2022-09-09T14:44:23;6.95;;;2.85;;
13706;SDS011;6925;47.816;13.072;2022-09-09T14:46:53;7.10;;;2.20;;
13706;SDS011;6925;47.816;13.072;2022-09-09T14:49:20;4.15;;;1.90;;
13706;SDS011;6925;47.816;13.072;2022-09-09T14:51:47;3.80;;;2.05;;
13706;SDS011;6925;47.816;13.072;2022-09-09T14:54:14;5.18;;;2.03;;
13706;SDS011;6925;47.816;13.072;2022-09-09T14:56:42;3.75;;;2.13;;
13706;SDS011;6925;47.816;13.072;2022-09-09T14:59:09;4.78;;;1.60;;
13706;SDS011;6925;47.816;13.072;2022-09-09T15:01:38;4.10;;;1.67;;
13706;SDS011;6925;47.816;13.072;2022-09-09T15:04:07;3.08;;;1.30;;
13706;SDS011;6925;47.816;13.072;2022-09-09T15:06:38;3.33;;;1.25;;
13706;SDS011;6925;47.816;13.072;2022-09-09T15:09:07;3.72;;;1.40;;
13706;SDS011;6925;47.816;13.072;2022-09-09T15:11:36;2.85;;;1.20;;
13706;SDS011;6925;47.816;13.072;2022-09-09T15:14:04;2.78;;;1.20;;
13706;SDS011;6925;47.816;13.072;2022-09-09T15:16:32;2.75;;;1.17;;
13706;SDS011;6925;47.816;13.072;2022-09-09T15:19:00;4.03;;;1.75;;
13706;SDS011;6925;47.816;13.072;2022-09-09T15:21:32;4.30;;;1.85;;
13706;SDS011;6925;47.816;13.072;2022-09-09T15:24:01;4.68;;;1.80;;
13706;SDS011;6925;47.816;13.072;2022-09-09T15:26:29;3.28;;;1.25;;
13706;SDS011;6925;47.816;13.072;2022-09-09T15:28:57;2.00;;;1.00;;
13706;SDS011;6925;47.816;13.072;2022-09-09T15:31:25;2.42;;;0.90;;
13706;SDS011;6925;47.816;13.072;2022-09-09T15:33:56;2.97;;;1.00;;
13706;SDS011;6925;47.816;13.072;2022-09-09T15:36:26;2.58;;;0.90;;
13706;SDS011;6925;47.816;13.072;2022-09-09T15:39:06;2.30;;;1.00;;
13706;SDS011;6925;47.816;13.072;2022-09-09T15:41:37;3.83;;;1.10;;
13706;SDS011;6925;47.816;13.072;2022-09-09T15:44:05;2.08;;;1.10;;
13706;SDS011;6925;47.816;13.072;2022-09-09T15:46:34;2.45;;;1.00;;
13706;SDS011;6925;47.816;13.072;2022-09-09T15:49:03;1.67;;;0.82;;
13706;SDS011;6925;47.816;13.072;2022-09-09T15:51:31;3.63;;;1.20;;
13706;SDS011;6925;47.816;13.072;2022-09-09T15:53:59;2.17;;;0.88;;
13706;SDS011;6925;47.816;13.072;2022-09-09T15:56:28;3.50;;;1.00;;
13706;SDS011;6925;47.816;13.072;2022-09-09T15:59:00;2.45;;;0.82;;
13706;SDS011;6925;47.816;13.072;2022-09-09T16:01:29;2.55;;;0.80;;
13706;SDS011;6925;47.816;13.072;2022-09-09T16:03:58;2.63;;;1.33;;
13706;SDS011;6925;47.816;13.072;2022-09-09T16:06:27;2.33;;;0.90;;
13706;SDS011;6925;47.816;13.072;2022-09-09T16:08:55;3.22;;;1.00;;
13706;SDS011;6925;47.816;13.072;2022-09-09T16:11:26;2.92;;;0.98;;
13706;SDS011;6925;47.816;13.072;2022-09-09T16:13:58;2.53;;;0.68;;
13706;SDS011;6925;47.816;13.072;2022-09-09T16:16:26;2.20;;;0.77;;
13706;SDS011;6925;47.816;13.072;2022-09-09T16:18:55;1.20;;;0.60;;
13706;SDS011;6925;47.816;13.072;2022-09-09T16:21:24;1.55;;;0.85;;
13706;SDS011;6925;47.816;13.072;2022-09-09T16:23:54;1.83;;;0.60;;
13706;SDS011;6925;47.816;13.072;2022-09-09T16:26:24;1.15;;;0.60;;
13706;SDS011;6925;47.816;13.072;2022-09-09T16:28:54;2.03;;;0.85;;
13706;SDS011;6925;47.816;13.072;2022-09-09T16:31:22;1.92;;;0.80;;
13706;SDS011;6925;47.816;13.072;2022-09-09T16:33:52;1.48;;;0.57;;
13706;SDS011;6925;47.816;13.072;2022-09-09T16:36:20;1.52;;;0.63;;
13706;SDS011;6925;47.816;13.072;2022-09-09T16:38:51;2.30;;;0.93;;
13706;SDS011;6925;47.816;13.072;2022-09-09T16:41:22;1.40;;;0.80;;
13706;SDS011;6925;47.816;13.072;2022-09-09T16:43:51;1.38;;;0.70;;
13706;SDS011;6925;47.816;13.072;2022-09-09T16:46:21;1.92;;;0.98;;
13706;SDS011;6925;47.816;13.072;2022-09-09T16:48:50;1.23;;;0.80;;
13706;SDS011;6925;47.816;13.072;2022-09-09T16:51:20;1.45;;;0.70;;
13706;SDS011;6925;47.816;13.072;2022-09-09T16:53:49;1.83;;;0.73;;
13706;SDS011;6925;47.816;13.072;2022-09-09T16:56:18;3.08;;;0.88;;
13706;SDS011;6925;47.816;13.072;2022-09-09T16:58:49;4.57;;;1.30;;
13706;SDS011;6925;47.816;13.072;2022-09-09T17:01:21;3.17;;;0.80;;
13706;SDS011;6925;47.816;13.072;2022-09-09T17:03:51;3.05;;;1.13;;
13706;SDS011;6925;47.816;13.072;2022-09-09T17:06:20;4.32;;;1.80;;
13706;SDS011;6925;47.816;13.072;2022-09-09T17:08:53;4.43;;;2.22;;
13706;SDS011;6925;47.816;13.072;2022-09-09T17:11:21;3.40;;;1.10;;
13706;SDS011;6925;47.816;13.072;2022-09-09T17:13:48;1.33;;;0.80;;
13706;SDS011;6925;47.816;13.072;2022-09-09T17:16:17;1.85;;;0.90;;
13706;SDS011;6925;47.816;13.072;2022-09-09T17:18:48;2.47;;;0.90;;
13706;SDS011;6925;47.816;13.072;2022-09-09T17:21:17;1.98;;;0.93;;
13706;SDS011;6925;47.816;13.072;2022-09-09T18:38:44;1.90;;;1.00;;
13706;SDS011;6925;47.816;13.072;2022-09-09T19:10:54;2.53;;;1.08;;
13706;SDS011;6925;47.816;13.072;2022-09-09T19:57:45;1.98;;;1.13;;
13706;SDS011;6925;47.816;13.072;2022-09-09T20:03:49;1.85;;;0.80;;
13706;SDS011;6925;47.816;13.072;2022-09-09T20:06:19;2.05;;;1.15;;
13706;SDS011;6925;47.816;13.072;2022-09-09T20:08:55;2.53;;;1.10;;
13706;SDS011;6925;47.816;13.072;2022-09-09T20:21:09;2.53;;;1.02;;
13706;SDS011;6925;47.816;13.072;2022-09-09T20:24:03;2.83;;;1.00;;
13706;SDS011;6925;47.816;13.072;2022-09-09T20:29:26;1.92;;;0.90;;
13706;SDS011;6925;47.816;13.072;2022-09-09T20:31:55;1.23;;;0.65;;
13706;SDS011;6925;47.816;13.072;2022-09-09T20:50:10;3.22;;;1.00;;
13706;SDS011;6925;47.816;13.072;2022-09-09T20:52:39;1.38;;;0.80;;
13706;SDS011;6925;47.816;13.072;2022-09-09T20:55:23;2.13;;;0.80;;
13706;SDS011;6925;47.816;13.072;2022-09-09T21:15:55;2.25;;;0.95;;
13706;SDS011;6925;47.816;13.072;2022-09-09T21:22:13;2.47;;;0.60;;
13706;SDS011;6925;47.816;13.072;2022-09-09T21:28:16;1.80;;;0.80;;
13706;SDS011;6925;47.816;13.072;2022-09-09T21:30:52;4.55;;;0.85;;
13706;SDS011;6925;47.816;13.072;2022-09-09T21:33:22;2.63;;;1.05;;
13706;SDS011;6925;47.816;13.072;2022-09-09T21:36:06;1.67;;;0.90;;
13706;SDS011;6925;47.816;13.072;2022-09-09T21:39:11;3.35;;;1.00;;
13706;SDS011;6925;47.816;13.072;2022-09-09T21:41:53;2.40;;;1.00;;
13706;SDS011;6925;47.816;13.072;2022-09-09T21:44:23;0.88;;;0.60;;
13706;SDS011;6925;47.816;13.072;2022-09-09T21:46:51;2.28;;;0.77;;
13706;SDS011;6925;47.816;13.072;2022-09-09T21:49:18;2.17;;;0.80;;
13706;SDS011;6925;47.816;13.072;2022-09-09T21:52:15;1.88;;;0.90;;
13706;SDS011;6925;47.816;13.072;2022-09-09T21:54:50;1.35;;;0.70;;
13706;SDS011;6925;47.816;13.072;2022-09-09T21:57:21;1.92;;;0.70;;
13706;SDS011;6925;47.816;13.072;2022-09-09T22:05:15;1.60;;;0.80;;
13706;SDS011;6925;47.816;13.072;2022-09-09T23:11:51;1.75;;;0.93;;
13706;SDS011;6925;47.816;13.072;2022-09-09T23:17:48;1.70;;;0.70;;
13706;SDS011;6925;47.816;13.072;2022-09-09T23:20:16;3.33;;;0.77;;
13706;SDS011;6925;47.816;13.072;2022-09-09T23:22:46;2.92;;;1.10;;
13706;SDS011;6925;47.816;13.072;2022-09-09T23:42:31;2.33;;;1.02;;
13706;SDS011;6925;47.816;13.072;2022-09-09T23:45:05;1.80;;;0.93;;
13706;SDS011;6925;47.816;13.072;2022-09-09T23:55:19;3.58;;;1.10;;
13706;SDS011;6925;47.816;13.072;2022-09-09T23:57:57;2.15;;;1.08;;
